CNG6 weather

Walkerton (County of Bruce General Hospital) Heliport
Walkerton, Ontario, Canada

Public forecast

Using degrees Celsius for public forecast. Weather courtesy of forecast.io.

METAR (pilot weather report)

Closest report is Wiarton Airport, 37.5 nm (69.5 km) N. Retrieved 2019/07/23 16:00 UTC (56 minutes ago):

CYVV 231600Z 32005KT 15SM FEW035 FEW070 SCT250 23/10 A2997 RMK CU1AC1CI1 WND ESTD SLP149 DENSITY ALT 1800FT

TAF (pilot weather forecast)

Closest forecast is Wiarton Airport, 37.5 nm (69.5 km) N. Retrieved 2019/07/23 14:00 UTC (3 hours ago):

TAF CYVV 231338Z 2314/2323 VRB03KT P6SM FEW070 FM231600 36008KT P6SM BKN070 BECMG 2320/2322 31008KT RMK NXT FCST BY 232000Z